createdAt,value
2023-04-16T00:01:03.769Z,95302
2023-04-16T00:02:13.514Z,95314
2023-04-16T00:03:22.321Z,95313
2023-04-16T00:04:32.042Z,95306
2023-04-16T00:05:41.789Z,95304
2023-04-16T00:06:51.668Z,95301
2023-04-16T00:08:01.378Z,95304
2023-04-16T00:09:09.278Z,95306
2023-04-16T00:10:18.851Z,95310
2023-04-16T00:11:28.504Z,95308
2023-04-16T00:12:36.196Z,95306
2023-04-16T00:13:43.877Z,95308
2023-04-16T00:14:52.647Z,95309
2023-04-16T00:16:01.356Z,95309
2023-04-16T00:17:10.137Z,95313
2023-04-16T00:18:18.771Z,95311
2023-04-16T00:19:27.432Z,95310
2023-04-16T00:20:37.121Z,95312
2023-04-16T00:21:45.833Z,95312
2023-04-16T00:22:55.614Z,95313
2023-04-16T00:24:04.322Z,95313
2023-04-16T00:25:13.000Z,95310
2023-04-16T00:26:22.757Z,95314
2023-04-16T00:27:31.429Z,95311
2023-04-16T00:28:40.093Z,95314
2023-04-16T00:29:49.809Z,95313
2023-04-16T00:30:58.532Z,95309
2023-04-16T00:32:07.183Z,95308
2023-04-16T00:33:16.914Z,95308
2023-04-16T00:34:25.572Z,95313
2023-04-16T00:35:35.295Z,95314
2023-04-16T00:36:43.970Z,95314
2023-04-16T00:37:52.624Z,95307
2023-04-16T00:39:02.310Z,95310
2023-04-16T00:40:09.984Z,95305
2023-04-16T00:41:18.681Z,95311
2023-04-16T00:42:28.363Z,95307
2023-04-16T00:43:37.012Z,95306
2023-04-16T00:44:45.680Z,95307
2023-04-16T00:45:55.417Z,95306
2023-04-16T00:47:04.064Z,95302
2023-04-16T00:48:12.752Z,95309
2023-04-16T00:49:22.527Z,95305
2023-04-16T00:50:31.207Z,95307
2023-04-16T00:51:40.928Z,95307
2023-04-16T00:52:48.600Z,95308
2023-04-16T00:53:57.251Z,95309
2023-04-16T00:55:06.935Z,95308
2023-04-16T00:56:14.664Z,95307
2023-04-16T00:57:24.353Z,95311
2023-04-16T00:58:33.048Z,95311
2023-04-16T00:59:40.680Z,95307
2023-04-16T01:00:50.390Z,95307
2023-04-16T01:02:00.216Z,95302
2023-04-16T01:03:09.874Z,95303
2023-04-16T01:04:19.498Z,95311
2023-04-16T01:05:27.167Z,95305
2023-04-16T01:06:36.841Z,95305
2023-04-16T01:07:46.525Z,95304
2023-04-16T01:08:55.194Z,95301
2023-04-16T01:10:04.896Z,95301
2023-04-16T01:11:13.992Z,95302
2023-04-16T01:12:22.736Z,95306
2023-04-16T01:13:32.432Z,95305
2023-04-16T01:14:41.113Z,95307
2023-04-16T01:15:49.817Z,95301
2023-04-16T01:16:58.493Z,95308
2023-04-16T01:18:08.239Z,95308
2023-04-16T01:19:17.909Z,95315
2023-04-16T01:20:26.587Z,95319
2023-04-16T01:21:35.306Z,95314
2023-04-16T01:22:45.007Z,95317
2023-04-16T01:23:52.689Z,95315
2023-04-16T01:25:00.354Z,95320
2023-04-16T01:26:09.046Z,95317
2023-04-16T01:27:17.707Z,95314
2023-04-16T01:28:26.394Z,95309
2023-04-16T01:29:35.072Z,95314
2023-04-16T01:30:44.737Z,95317
2023-04-16T01:31:54.612Z,95316
2023-04-16T01:33:03.228Z,95321
2023-04-16T01:34:11.904Z,95321
2023-04-16T01:35:20.636Z,95317
2023-04-16T01:36:29.312Z,95318
2023-04-16T01:37:38.999Z,95320
2023-04-16T01:38:48.659Z,95320
2023-04-16T01:39:57.341Z,95323
2023-04-16T01:41:07.027Z,95322
2023-04-16T01:42:15.694Z,95319
2023-04-16T01:43:24.442Z,95321
2023-04-16T01:44:33.112Z,95321
2023-04-16T01:45:41.796Z,95326
2023-04-16T01:46:51.540Z,95333
2023-04-16T01:48:00.179Z,95328
2023-04-16T01:49:08.005Z,95327
2023-04-16T01:50:17.495Z,95327
2023-04-16T01:51:26.179Z,95327
2023-04-16T01:52:35.862Z,95331
2023-04-16T01:53:44.535Z,95331
2023-04-16T01:54:53.197Z,95327
2023-04-16T01:56:02.888Z,95325
2023-04-16T01:57:10.574Z,95330
2023-04-16T01:58:19.264Z,95332
2023-04-16T01:59:28.955Z,95326
2023-04-16T02:00:37.688Z,95326
2023-04-16T02:01:46.316Z,95325
2023-04-16T02:02:55.068Z,95325
2023-04-16T02:04:03.744Z,95330
2023-04-16T02:05:13.349Z,95328
2023-04-16T02:06:21.043Z,95324
2023-04-16T02:07:29.692Z,95328
2023-04-16T02:08:39.355Z,95332
2023-04-16T02:09:48.033Z,95327
2023-04-16T02:10:56.692Z,95332
2023-04-16T02:12:05.424Z,95330
2023-04-16T02:13:14.088Z,95330
2023-04-16T02:14:23.769Z,95330
2023-04-16T02:15:31.433Z,95332
2023-04-16T02:16:40.222Z,95328
2023-04-16T02:17:49.807Z,95334
2023-04-16T02:18:58.517Z,95334
2023-04-16T02:20:07.192Z,95332
2023-04-16T02:21:15.863Z,95331
2023-04-16T02:22:24.567Z,95328
2023-04-16T02:23:34.242Z,95331
2023-04-16T02:24:42.050Z,95329
2023-04-16T02:25:50.714Z,95326
2023-04-16T02:27:00.441Z,95331
2023-04-16T02:28:09.116Z,95333
2023-04-16T02:29:18.771Z,95331
2023-04-16T02:30:27.449Z,95330
2023-04-16T02:31:37.181Z,95331
2023-04-16T02:32:45.935Z,95332
2023-04-16T02:33:55.579Z,95332
2023-04-16T02:35:05.276Z,95328
2023-04-16T02:36:14.928Z,95326
2023-04-16T02:37:23.643Z,95328
2023-04-16T02:38:34.323Z,95327
2023-04-16T02:39:44.114Z,95326
2023-04-16T02:40:52.696Z,95329
2023-04-16T02:42:01.391Z,95329
2023-04-16T02:43:11.095Z,95332
2023-04-16T02:44:19.809Z,95336
2023-04-16T02:45:28.497Z,95332
2023-04-16T02:46:38.184Z,95333
2023-04-16T02:47:46.937Z,95336
2023-04-16T02:48:56.588Z,95328
2023-04-16T02:50:05.274Z,95339
2023-04-16T02:51:14.990Z,95334
2023-04-16T02:52:24.709Z,95332
2023-04-16T02:53:32.396Z,95336
2023-04-16T02:54:41.085Z,95336
2023-04-16T02:55:49.762Z,95333
2023-04-16T02:56:59.423Z,95335
2023-04-16T02:58:09.114Z,95333
2023-04-16T02:59:16.790Z,95342
2023-04-16T03:00:25.467Z,95338
2023-04-16T03:01:35.201Z,95346
2023-04-16T03:02:42.938Z,95345
2023-04-16T03:03:50.567Z,95348
2023-04-16T03:05:00.236Z,95344
2023-04-16T03:06:08.882Z,95348
2023-04-16T03:07:18.617Z,95349
2023-04-16T03:08:27.309Z,95354
2023-04-16T03:09:35.987Z,95349
2023-04-16T03:10:45.731Z,95354
2023-04-16T03:11:54.356Z,95353
2023-04-16T03:13:03.121Z,95349
2023-04-16T03:14:11.804Z,95349
2023-04-16T03:15:21.482Z,95350
2023-04-16T03:16:32.152Z,95349
2023-04-16T03:17:39.872Z,95350
2023-04-16T03:18:49.558Z,95348
2023-04-16T03:19:59.281Z,95348
2023-04-16T03:21:06.975Z,95351
2023-04-16T03:22:14.639Z,95353
2023-04-16T03:23:23.391Z,95356
2023-04-16T03:24:32.062Z,95354
2023-04-16T03:25:40.745Z,95356
2023-04-16T03:26:49.459Z,95358
2023-04-16T03:27:59.143Z,95351
2023-04-16T03:29:09.096Z,95351
2023-04-16T03:30:17.609Z,95353
2023-04-16T03:31:27.341Z,95356
2023-04-16T03:32:35.005Z,95359
2023-04-16T03:33:44.694Z,95363
2023-04-16T03:34:52.350Z,95359
2023-04-16T03:36:02.030Z,95365
2023-04-16T03:37:11.689Z,95365
2023-04-16T03:38:20.381Z,95362
2023-04-16T03:39:30.090Z,95364
2023-04-16T03:40:39.716Z,95367
2023-04-16T03:41:48.396Z,95366
2023-04-16T03:42:58.095Z,95364
2023-04-16T03:44:06.785Z,95364
2023-04-16T03:45:15.461Z,95363
2023-04-16T03:46:25.131Z,95359
2023-04-16T03:47:33.851Z,95362
2023-04-16T03:48:42.526Z,95366
2023-04-16T03:49:51.223Z,95360
2023-04-16T03:50:58.878Z,95365
2023-04-16T03:52:08.551Z,95362
2023-04-16T03:53:16.240Z,95365
2023-04-16T03:54:25.944Z,95369
2023-04-16T03:55:35.646Z,95368
2023-04-16T03:56:43.292Z,95366
2023-04-16T03:57:51.998Z,95372
2023-04-16T03:59:00.699Z,95366
2023-04-16T04:00:09.361Z,95373
2023-04-16T04:01:19.040Z,95372
2023-04-16T04:02:27.820Z,95371
2023-04-16T04:03:36.676Z,95374
2023-04-16T04:04:46.378Z,95374
2023-04-16T04:05:53.896Z,95375
2023-04-16T04:07:02.568Z,95383
2023-04-16T04:08:11.332Z,95388
2023-04-16T04:09:20.039Z,95381
2023-04-16T04:10:29.708Z,95385
2023-04-16T04:11:37.379Z,95385
2023-04-16T04:12:46.021Z,95380
2023-04-16T04:13:55.733Z,95383
2023-04-16T04:15:03.372Z,95381
2023-04-16T04:16:13.064Z,95384
2023-04-16T04:17:21.831Z,95385
2023-04-16T04:18:32.502Z,95381
2023-04-16T04:19:44.563Z,95379
2023-04-16T04:20:52.877Z,95383
2023-04-16T04:22:01.555Z,95381
2023-04-16T04:23:11.213Z,95382
2023-04-16T04:24:20.923Z,95385
2023-04-16T04:25:29.587Z,95381
2023-04-16T04:26:39.251Z,95383
2023-04-16T04:27:47.935Z,95387
2023-04-16T04:28:57.611Z,95381
2023-04-16T04:30:07.292Z,95384
2023-04-16T04:31:15.943Z,95383
2023-04-16T04:32:25.640Z,95393
2023-04-16T04:33:33.323Z,95389
2023-04-16T04:34:41.983Z,95392
2023-04-16T04:35:50.650Z,95392
2023-04-16T04:36:59.316Z,95396
2023-04-16T04:38:07.956Z,95392
2023-04-16T04:39:18.641Z,95393
2023-04-16T04:40:26.310Z,95392
2023-04-16T04:41:34.984Z,95394
2023-04-16T04:42:43.679Z,95393
2023-04-16T04:43:52.412Z,95397
2023-04-16T04:45:02.055Z,95400
2023-04-16T04:46:09.755Z,95393
2023-04-16T04:47:17.401Z,95396
2023-04-16T04:48:27.061Z,95393
2023-04-16T04:49:35.767Z,95397
2023-04-16T04:50:44.439Z,95397
2023-04-16T04:51:53.110Z,95402
2023-04-16T04:53:02.796Z,95401
2023-04-16T04:54:12.483Z,95403
2023-04-16T04:55:20.133Z,95400
2023-04-16T04:56:29.787Z,95406
2023-04-16T04:57:39.482Z,95412
2023-04-16T04:58:48.146Z,95409
2023-04-16T04:59:57.831Z,95408
2023-04-16T05:01:07.486Z,95408
2023-04-16T05:02:16.229Z,95414
2023-04-16T05:03:25.848Z,95409
2023-04-16T05:04:34.489Z,95411
2023-04-16T05:05:43.163Z,95414
2023-04-16T05:06:51.817Z,95414
2023-04-16T05:07:59.491Z,95412
2023-04-16T05:09:09.352Z,95412
2023-04-16T05:10:17.878Z,95413
2023-04-16T05:11:26.589Z,95411
2023-04-16T05:12:36.262Z,95412
2023-04-16T05:13:43.920Z,95419
2023-04-16T05:14:52.641Z,95415
2023-04-16T05:16:02.335Z,95415
2023-04-16T05:17:11.988Z,95419
2023-04-16T05:18:20.645Z,95418
2023-04-16T05:19:29.424Z,95421
2023-04-16T05:20:38.101Z,95421
2023-04-16T05:21:47.768Z,95431
2023-04-16T05:22:55.468Z,95425
2023-04-16T05:24:04.136Z,95430
2023-04-16T05:25:13.857Z,95427
2023-04-16T05:26:22.535Z,95428
2023-04-16T05:27:32.235Z,95426
2023-04-16T05:28:40.913Z,95429
2023-04-16T05:29:49.604Z,95427
2023-04-16T05:30:59.334Z,95429
2023-04-16T05:32:07.003Z,95435
2023-04-16T05:33:15.674Z,95431
2023-04-16T05:34:25.491Z,95429
2023-04-16T05:35:34.195Z,95432
2023-04-16T05:36:42.852Z,95435
2023-04-16T05:37:51.546Z,95437
2023-04-16T05:39:01.274Z,95436
2023-04-16T05:40:10.988Z,95441
2023-04-16T05:41:19.651Z,95447
2023-04-16T05:42:28.410Z,95439
2023-04-16T05:43:38.059Z,95446
2023-04-16T05:44:45.825Z,95444
2023-04-16T05:45:54.526Z,95444
2023-04-16T05:47:03.190Z,95442
2023-04-16T05:48:11.889Z,95444
2023-04-16T05:49:21.590Z,95442
2023-04-16T05:50:31.263Z,95443
2023-04-16T05:51:39.964Z,95449
2023-04-16T05:52:49.673Z,95449
2023-04-16T05:53:57.394Z,95445
2023-04-16T05:55:06.065Z,95453
2023-04-16T05:56:15.798Z,95452
2023-04-16T05:57:24.507Z,95458
2023-04-16T05:58:34.191Z,95458
2023-04-16T05:59:42.893Z,95457
2023-04-16T06:00:51.569Z,95455
2023-04-16T06:02:01.261Z,95460
2023-04-16T06:03:10.070Z,95461
2023-04-16T06:04:19.732Z,95457
2023-04-16T06:05:29.414Z,95459
2023-04-16T06:06:39.018Z,95451
2023-04-16T06:07:48.716Z,95457
2023-04-16T06:08:56.391Z,95466
2023-04-16T06:10:05.088Z,95460
2023-04-16T06:11:14.790Z,95460
2023-04-16T06:12:23.452Z,95461
2023-04-16T06:13:33.131Z,95463
2023-04-16T06:14:41.814Z,95464
2023-04-16T06:15:50.514Z,95470
2023-04-16T06:17:01.153Z,95468
2023-04-16T06:18:08.993Z,95474
2023-04-16T06:19:18.553Z,95473
2023-04-16T06:20:28.214Z,95473
2023-04-16T06:21:36.872Z,95471
2023-04-16T06:22:46.579Z,95473
2023-04-16T06:23:55.240Z,95477
2023-04-16T06:25:03.913Z,95471
2023-04-16T06:26:13.665Z,95474
2023-04-16T06:27:22.311Z,95471
2023-04-16T06:28:30.999Z,95470
2023-04-16T06:29:41.778Z,95471
2023-04-16T06:30:48.391Z,95474
2023-04-16T06:31:58.058Z,95467
2023-04-16T06:33:06.717Z,95477
2023-04-16T06:34:14.395Z,95475
2023-04-16T06:35:23.106Z,95475
2023-04-16T06:36:32.789Z,95475
2023-04-16T06:37:41.437Z,95475
2023-04-16T06:38:51.106Z,95481
2023-04-16T06:39:59.772Z,95480
2023-04-16T06:41:09.461Z,95483
2023-04-16T06:42:19.135Z,95483
2023-04-16T06:43:27.791Z,95481
2023-04-16T06:44:36.529Z,95481
2023-04-16T06:45:46.267Z,95480
2023-04-16T06:46:53.969Z,95482
2023-04-16T06:48:03.705Z,95481
2023-04-16T06:49:12.329Z,95485
2023-04-16T06:50:21.041Z,95490
2023-04-16T06:51:30.717Z,95487
2023-04-16T06:52:38.408Z,95488
2023-04-16T06:53:47.042Z,95489
2023-04-16T06:54:56.743Z,95487
2023-04-16T06:56:06.455Z,95492
2023-04-16T06:57:15.135Z,95497
2023-04-16T06:58:22.798Z,95494
2023-04-16T06:59:31.455Z,95499
2023-04-16T07:00:41.182Z,95497
2023-04-16T07:01:48.836Z,95501
2023-04-16T07:02:58.844Z,95502
2023-04-16T07:04:08.253Z,95503
2023-04-16T07:05:17.854Z,95502
2023-04-16T07:06:26.573Z,95503
2023-04-16T07:07:35.247Z,95503
2023-04-16T07:08:43.942Z,95497
2023-04-16T07:09:53.590Z,95505
2023-04-16T07:11:01.295Z,95499
2023-04-16T07:12:09.968Z,95497
2023-04-16T07:13:19.657Z,95500
2023-04-16T07:14:27.327Z,95499
2023-04-16T07:15:35.991Z,95496
2023-04-16T07:16:45.773Z,95496
2023-04-16T07:17:54.400Z,95494
2023-04-16T07:19:04.071Z,95498
2023-04-16T07:20:12.755Z,95494
2023-04-16T07:21:21.451Z,95495
2023-04-16T07:22:31.166Z,95495
2023-04-16T07:23:39.910Z,95495
2023-04-16T07:24:49.618Z,95492
2023-04-16T07:25:59.310Z,95492
2023-04-16T07:27:08.987Z,95497
2023-04-16T07:28:18.672Z,95498
2023-04-16T07:29:26.336Z,95498
2023-04-16T07:30:35.037Z,95499
2023-04-16T07:31:44.791Z,95496
2023-04-16T07:32:52.505Z,95498
2023-04-16T07:34:02.116Z,95495
2023-04-16T07:35:10.899Z,95502
2023-04-16T07:36:19.575Z,95498
2023-04-16T07:37:29.281Z,95502
2023-04-16T07:38:37.954Z,95505
2023-04-16T07:39:46.622Z,95499
2023-04-16T07:40:56.349Z,95496
2023-04-16T07:42:05.013Z,95498
2023-04-16T07:43:14.703Z,95502
2023-04-16T07:44:23.393Z,95502
2023-04-16T07:45:32.074Z,95505
2023-04-16T07:46:46.678Z,95504
2023-04-16T07:47:51.573Z,95503
2023-04-16T07:49:01.259Z,95512
2023-04-16T07:50:10.927Z,95508
2023-04-16T07:51:19.626Z,95512
2023-04-16T07:52:29.306Z,95513
2023-04-16T07:53:38.993Z,95519
2023-04-16T07:54:48.735Z,95513
2023-04-16T07:55:58.435Z,95509
2023-04-16T07:57:06.132Z,95510
2023-04-16T07:58:14.772Z,95516
2023-04-16T07:59:24.669Z,95514
2023-04-16T08:00:33.142Z,95511
2023-04-16T08:01:41.851Z,95517
2023-04-16T08:02:51.651Z,95514
2023-04-16T08:04:00.417Z,95519
2023-04-16T08:05:10.032Z,95515
2023-04-16T08:06:17.701Z,95516
2023-04-16T08:07:27.348Z,95519
2023-04-16T08:08:38.011Z,95520
2023-04-16T08:09:46.733Z,95521
2023-04-16T08:10:56.432Z,95526
2023-04-16T08:12:05.091Z,95527
2023-04-16T08:13:13.770Z,95524
2023-04-16T08:14:23.449Z,95528
2023-04-16T08:15:32.175Z,95526
2023-04-16T08:16:40.822Z,95531
2023-04-16T08:17:50.519Z,95534
2023-04-16T08:18:59.169Z,95534
2023-04-16T08:20:08.855Z,95536
2023-04-16T08:21:18.539Z,95535
2023-04-16T08:22:27.211Z,95533
2023-04-16T08:23:36.913Z,95537
2023-04-16T08:24:44.572Z,95539
2023-04-16T08:25:54.270Z,95531
2023-04-16T08:27:11.390Z,95536
2023-04-16T08:28:11.613Z,95540
2023-04-16T08:29:20.293Z,95542
2023-04-16T08:30:28.926Z,95533
2023-04-16T08:31:38.677Z,95539
2023-04-16T08:32:49.475Z,95538
2023-04-16T08:33:57.043Z,95535
2023-04-16T08:35:06.827Z,95536
2023-04-16T08:36:15.539Z,95537
2023-04-16T08:37:25.224Z,95542
2023-04-16T08:38:33.920Z,95539
2023-04-16T08:39:42.652Z,95539
2023-04-16T08:40:52.352Z,95537
2023-04-16T08:42:01.138Z,95540
2023-04-16T08:43:10.865Z,95545
2023-04-16T08:44:20.665Z,95543
2023-04-16T08:45:28.379Z,95554
2023-04-16T08:46:37.241Z,95549
2023-04-16T08:47:45.874Z,95554
2023-04-16T08:48:54.528Z,95555
2023-04-16T08:50:04.301Z,95551
2023-04-16T08:51:11.161Z,95557
2023-04-16T08:52:19.700Z,95560
2023-04-16T08:53:29.365Z,95555
2023-04-16T08:54:37.045Z,95557
2023-04-16T08:55:45.713Z,95561
2023-04-16T08:56:54.491Z,95559
2023-04-16T08:58:03.160Z,95566
2023-04-16T08:59:12.844Z,95562
2023-04-16T09:00:20.525Z,95562
2023-04-16T09:01:29.376Z,95560
2023-04-16T09:02:39.182Z,95567
2023-04-16T09:03:47.829Z,95563
2023-04-16T09:04:57.404Z,95565
2023-04-16T09:06:06.033Z,95565
2023-04-16T09:07:14.704Z,95572
2023-04-16T09:08:23.373Z,95568
2023-04-16T09:09:34.587Z,95577
2023-04-16T09:10:41.702Z,95575
2023-04-16T09:11:50.380Z,95570
2023-04-16T09:12:59.059Z,95573
2023-04-16T09:14:08.752Z,95574
2023-04-16T09:15:18.413Z,95580
2023-04-16T09:16:27.167Z,95578
2023-04-16T09:17:36.834Z,95578
2023-04-16T09:18:46.470Z,95581
2023-04-16T09:19:54.167Z,95578
2023-04-16T09:21:02.894Z,95574
2023-04-16T09:22:11.577Z,95580
2023-04-16T09:23:20.248Z,95581
2023-04-16T09:24:29.953Z,95582
2023-04-16T09:25:37.615Z,95579
2023-04-16T09:26:46.353Z,95580
2023-04-16T09:27:56.026Z,95579
2023-04-16T09:29:04.763Z,95575
2023-04-16T09:30:13.428Z,95583
2023-04-16T09:31:23.135Z,95578
2023-04-16T09:32:32.894Z,95581
2023-04-16T09:33:42.563Z,95579
2023-04-16T09:34:51.227Z,95574
2023-04-16T09:36:00.914Z,95576
2023-04-16T09:37:10.615Z,95577
2023-04-16T09:38:18.295Z,95577
2023-04-16T09:39:26.962Z,95576
2023-04-16T09:40:35.659Z,95581
2023-04-16T09:41:44.352Z,95584
2023-04-16T09:42:54.012Z,95578
2023-04-16T09:44:01.682Z,95574
2023-04-16T09:45:10.368Z,95571
2023-04-16T09:46:20.081Z,95572
2023-04-16T09:47:28.773Z,95578
2023-04-16T09:48:37.418Z,95577
2023-04-16T09:49:46.159Z,95575
2023-04-16T09:50:54.786Z,95575
2023-04-16T09:52:04.539Z,95576
2023-04-16T09:53:13.251Z,95580
2023-04-16T09:54:21.919Z,95591
2023-04-16T09:55:31.805Z,95585
2023-04-16T09:56:40.072Z,95585
2023-04-16T09:57:49.225Z,95581
2023-04-16T09:58:58.318Z,95587
2023-04-16T10:00:07.122Z,95587
2023-04-16T10:01:16.889Z,95586
2023-04-16T10:02:25.608Z,95585
2023-04-16T10:03:34.486Z,95587
2023-04-16T10:04:43.973Z,95575
2023-04-16T10:05:51.640Z,95588
2023-04-16T10:07:00.318Z,95590
2023-04-16T10:08:10.990Z,95588
2023-04-16T10:09:20.666Z,95588
2023-04-16T10:10:29.324Z,95592
2023-04-16T10:11:38.003Z,95595
2023-04-16T10:12:46.671Z,95595
2023-04-16T10:13:55.312Z,95594
2023-04-16T10:15:03.970Z,95594
2023-04-16T10:16:12.678Z,95590
2023-04-16T10:17:22.374Z,95584
2023-04-16T10:18:32.049Z,95587
2023-04-16T10:19:40.789Z,95588
2023-04-16T10:20:50.478Z,95588
2023-04-16T10:22:00.161Z,95587
2023-04-16T10:23:09.832Z,95590
2023-04-16T10:24:17.517Z,95590
2023-04-16T10:25:26.185Z,95591
2023-04-16T10:26:35.912Z,95589
2023-04-16T10:27:44.628Z,95595
2023-04-16T10:28:54.357Z,95588
2023-04-16T10:30:02.067Z,95589
2023-04-16T10:31:10.718Z,95587
2023-04-16T10:32:20.386Z,95591
2023-04-16T10:33:28.051Z,95584
2023-04-16T10:34:37.732Z,95584
2023-04-16T10:35:54.955Z,95588
2023-04-16T10:36:58.809Z,95585
2023-04-16T10:38:08.552Z,95593
2023-04-16T10:39:17.470Z,95593
2023-04-16T10:40:26.907Z,95585
2023-04-16T10:41:36.594Z,95591
2023-04-16T10:42:46.294Z,95587
2023-04-16T10:43:55.001Z,95586
2023-04-16T10:45:04.688Z,95593
2023-04-16T10:46:13.377Z,95593
2023-04-16T10:47:23.056Z,95595
2023-04-16T10:48:38.677Z,95589
2023-04-16T10:49:41.439Z,95590
2023-04-16T10:50:52.048Z,95592
2023-04-16T10:51:59.787Z,95591
2023-04-16T10:53:08.456Z,95588
2023-04-16T10:54:18.210Z,95591
2023-04-16T10:55:26.841Z,95588
2023-04-16T10:56:35.521Z,95589
2023-04-16T10:57:44.293Z,95593
2023-04-16T10:58:52.968Z,95596
2023-04-16T11:00:02.660Z,95595
2023-04-16T11:01:10.447Z,95596
2023-04-16T11:02:19.486Z,95594
2023-04-16T11:03:29.797Z,95596
2023-04-16T11:04:37.441Z,95590
2023-04-16T11:05:46.017Z,95600
2023-04-16T11:06:55.697Z,95600
2023-04-16T11:08:04.474Z,95600
2023-04-16T11:09:13.201Z,95603
2023-04-16T11:10:21.900Z,95605
2023-04-16T11:11:31.544Z,95604
2023-04-16T11:12:41.252Z,95609
2023-04-16T11:13:50.939Z,95609
2023-04-16T11:14:59.602Z,95609
2023-04-16T11:16:09.333Z,95604
2023-04-16T11:17:17.991Z,95603
2023-04-16T11:18:26.705Z,95606
2023-04-16T11:19:36.435Z,95606
2023-04-16T11:20:45.094Z,95603
2023-04-16T11:21:53.793Z,95601
2023-04-16T11:23:01.529Z,95609
2023-04-16T11:24:10.191Z,95604
2023-04-16T11:25:19.867Z,95605
2023-04-16T11:26:28.560Z,95606
2023-04-16T11:27:38.232Z,95605
2023-04-16T11:28:46.955Z,95600
2023-04-16T11:29:56.626Z,95606
2023-04-16T11:31:06.497Z,95606
2023-04-16T11:32:15.185Z,95608
2023-04-16T11:33:24.915Z,95614
2023-04-16T11:34:34.647Z,95613
2023-04-16T11:35:43.345Z,95609
2023-04-16T11:36:53.025Z,95606
2023-04-16T11:38:01.757Z,95608
2023-04-16T11:39:10.554Z,95612
2023-04-16T11:40:20.066Z,95612
2023-04-16T11:41:27.735Z,95613
2023-04-16T11:42:37.618Z,95607
2023-04-16T11:43:47.170Z,95608
2023-04-16T11:44:55.834Z,95610
2023-04-16T11:46:13.195Z,95613
2023-04-16T11:47:16.216Z,95614
2023-04-16T11:48:24.887Z,95614
2023-04-16T11:49:34.554Z,95615
2023-04-16T11:50:42.237Z,95612
2023-04-16T11:51:51.900Z,95613
2023-04-16T11:53:01.633Z,95613
2023-04-16T11:54:12.145Z,95613
2023-04-16T11:55:21.023Z,95620
2023-04-16T11:56:29.717Z,95623
2023-04-16T11:57:38.749Z,95624
2023-04-16T11:58:48.483Z,95622
2023-04-16T12:00:01.096Z,95624
2023-04-16T12:01:07.784Z,95625
2023-04-16T12:02:17.504Z,95626
2023-04-16T12:03:25.374Z,95632
2023-04-16T12:04:34.019Z,95619
2023-04-16T12:05:42.571Z,95621
2023-04-16T12:06:51.251Z,95623
2023-04-16T12:08:00.976Z,95620
2023-04-16T12:09:08.880Z,95621
2023-04-16T12:10:17.356Z,95625
2023-04-16T12:11:27.067Z,95623
2023-04-16T12:12:35.736Z,95623
2023-04-16T12:13:45.430Z,95628
2023-04-16T12:14:54.137Z,95625
2023-04-16T12:16:01.766Z,95621
2023-04-16T12:17:11.453Z,95620
2023-04-16T12:18:19.156Z,95622
2023-04-16T12:19:26.826Z,95617
2023-04-16T12:20:36.559Z,95619
2023-04-16T12:21:44.233Z,95619
2023-04-16T12:22:52.964Z,95622
2023-04-16T12:24:01.645Z,95617
2023-04-16T12:25:10.303Z,95621
2023-04-16T12:26:20.039Z,95619
2023-04-16T12:27:28.702Z,95625
2023-04-16T12:28:37.458Z,95627
2023-04-16T12:29:47.285Z,95625
2023-04-16T12:30:56.030Z,95626
2023-04-16T12:32:05.668Z,95626
2023-04-16T12:33:14.453Z,95628
2023-04-16T12:34:27.730Z,95623
2023-04-16T12:35:33.780Z,95625
2023-04-16T12:36:41.426Z,95622
2023-04-16T12:37:51.188Z,95627
2023-04-16T12:39:00.884Z,95628
2023-04-16T12:40:08.552Z,95629
2023-04-16T12:41:17.255Z,95622
2023-04-16T12:42:25.929Z,95628
2023-04-16T12:43:34.642Z,95628
2023-04-16T12:44:44.311Z,95631
2023-04-16T12:45:51.996Z,95628
2023-04-16T12:47:01.653Z,95631
2023-04-16T12:48:11.431Z,95629
2023-04-16T12:49:21.054Z,95628
2023-04-16T12:50:29.725Z,95633
2023-04-16T12:51:38.390Z,95634
2023-04-16T12:52:47.097Z,95629
2023-04-16T12:53:56.804Z,95631
2023-04-16T12:55:04.451Z,95631
2023-04-16T12:56:13.133Z,95630
2023-04-16T12:57:22.815Z,95629
2023-04-16T12:58:30.496Z,95628
2023-04-16T12:59:39.173Z,95628
2023-04-16T13:00:47.869Z,95628
2023-04-16T13:01:57.632Z,95633
2023-04-16T13:03:07.389Z,95636
2023-04-16T13:04:16.969Z,95630
2023-04-16T13:05:27.615Z,95628
2023-04-16T13:06:36.299Z,95628
2023-04-16T13:07:45.967Z,95629
2023-04-16T13:08:54.708Z,95627
2023-04-16T13:10:04.400Z,95636
2023-04-16T13:11:14.100Z,95637
2023-04-16T13:12:22.735Z,95631
2023-04-16T13:13:32.437Z,95632
2023-04-16T13:14:40.094Z,95634
2023-04-16T13:15:49.846Z,95630
2023-04-16T13:16:58.422Z,95627
2023-04-16T13:18:08.202Z,95633
2023-04-16T13:19:17.876Z,95635
2023-04-16T13:20:27.581Z,95630
2023-04-16T13:21:36.233Z,95628
2023-04-16T13:22:45.898Z,95632
2023-04-16T13:23:54.590Z,95636
2023-04-16T13:25:04.280Z,95637
2023-04-16T13:26:11.940Z,95638
2023-04-16T13:27:21.655Z,95638
2023-04-16T13:28:31.329Z,95636
2023-04-16T13:29:39.005Z,95635
2023-04-16T13:30:48.693Z,95637
2023-04-16T13:31:58.366Z,95638
2023-04-16T13:33:06.089Z,95644
2023-04-16T13:34:14.721Z,95637
2023-04-16T13:35:23.435Z,95643
2023-04-16T13:36:32.083Z,95644
2023-04-16T13:37:41.765Z,95642
2023-04-16T13:38:50.456Z,95644
2023-04-16T13:39:59.229Z,95647
2023-04-16T13:41:08.909Z,95646
2023-04-16T13:42:16.591Z,95645
2023-04-16T13:43:26.295Z,95645
2023-04-16T13:44:33.986Z,95643
2023-04-16T13:45:42.649Z,95650
2023-04-16T13:46:52.385Z,95651
2023-04-16T13:48:01.272Z,95656
2023-04-16T13:49:10.533Z,95655
2023-04-16T13:50:20.232Z,95652
2023-04-16T13:51:29.643Z,95652
2023-04-16T13:52:40.963Z,95653
2023-04-16T13:53:49.797Z,95653
2023-04-16T13:55:00.183Z,95656
2023-04-16T13:56:09.118Z,95659
2023-04-16T13:57:16.781Z,95654
2023-04-16T13:58:25.585Z,95651
2023-04-16T13:59:35.266Z,95656
2023-04-16T14:00:43.976Z,95648
2023-04-16T14:01:52.684Z,95655
2023-04-16T14:03:02.417Z,95653
2023-04-16T14:04:12.030Z,95655
2023-04-16T14:05:21.709Z,95655
2023-04-16T14:06:30.357Z,95654
2023-04-16T14:07:40.177Z,95655
2023-04-16T14:08:49.800Z,95649
2023-04-16T14:09:58.473Z,95650
2023-04-16T14:11:07.154Z,95656
2023-04-16T14:12:15.908Z,95654
2023-04-16T14:13:24.651Z,95652
2023-04-16T14:14:34.380Z,95654
2023-04-16T14:15:43.125Z,95655
2023-04-16T14:16:51.800Z,95653
2023-04-16T14:18:01.563Z,95652
2023-04-16T14:19:11.443Z,95654
2023-04-16T14:20:18.935Z,95656
2023-04-16T14:21:27.602Z,95653
2023-04-16T14:22:36.265Z,95652
2023-04-16T14:23:46.017Z,95655
2023-04-16T14:24:54.633Z,95652
2023-04-16T14:26:03.339Z,95651
2023-04-16T14:27:13.008Z,95651
2023-04-16T14:28:20.714Z,95649
2023-04-16T14:29:29.377Z,95654
2023-04-16T14:30:38.065Z,95650
2023-04-16T14:31:47.801Z,95651
2023-04-16T14:32:57.551Z,95651
2023-04-16T14:34:05.218Z,95651
2023-04-16T14:35:14.871Z,95651
2023-04-16T14:36:24.554Z,95648
2023-04-16T14:37:32.248Z,95649
2023-04-16T14:38:40.915Z,95653
2023-04-16T14:39:49.649Z,95651
2023-04-16T14:40:58.301Z,95651
2023-04-16T14:42:07.994Z,95655
2023-04-16T14:43:15.680Z,95658
2023-04-16T14:44:24.361Z,95654
2023-04-16T14:45:35.061Z,95656
2023-04-16T14:46:44.762Z,95660
2023-04-16T14:47:53.468Z,95655
2023-04-16T14:49:02.235Z,95659